Time;durP1;ratioP1;P1;durP2;ratioP2;P2;SDS_P1;SDS_P2;PMS_P1;PMS_P2;Temp;Humidity;BMP_temperature;BMP_pressure;BME280_temperature;BME280_humidity;BME280_pressure;Samples;Min_cycle;Max_cycle;Signal;HPM_P1;HPM_P2
2023/06/12 00:01:19;;;;;;;0.10;0.10;;;;;;;;;;5033860;28;20263;-72
2023/06/12 00:03:47;;;;;;;0.00;0.00;;;;;;;;;;5044381;28;20233;-71
2023/06/12 00:06:15;;;;;;;0.00;0.00;;;;;;;;;;5033445;28;20237;-71
2023/06/12 00:08:42;;;;;;;0.00;0.00;;;;;;;;;;5044296;28;20208;-71
2023/06/12 00:11:12;;;;;;;0.10;0.10;;;;;;;;;;5033725;28;20488;-71
2023/06/12 00:13:38;;;;;;;0.10;0.10;;;;;;;;;;5043876;28;20240;-71
2023/06/12 00:16:05;;;;;;;0.10;0.10;;;;;;;;;;5033736;28;20318;-71
2023/06/12 00:18:33;;;;;;;1.90;1.85;;;;;;;;;;5043780;28;20208;-71
2023/06/12 00:20:59;;;;;;;0.05;0.05;;;;;;;;;;5033639;28;20243;-71
2023/06/12 00:23:25;;;;;;;0.00;0.00;;;;;;;;;;5043608;28;20279;-72
2023/06/12 00:25:52;;;;;;;0.10;0.10;;;;;;;;;;5033197;28;20317;-71
2023/06/12 00:28:18;;;;;;;0.52;0.52;;;;;;;;;;5043491;28;20278;-71
2023/06/12 00:30:44;;;;;;;0.10;0.10;;;;;;;;;;5033700;28;20243;-71
2023/06/12 00:33:11;;;;;;;0.10;0.10;;;;;;;;;;5043562;28;20239;-71
2023/06/12 00:35:38;;;;;;;0.10;0.10;;;;;;;;;;5033588;28;20497;-71
2023/06/12 00:38:06;;;;;;;0.00;0.00;;;;;;;;;;5043545;28;20225;-72
2023/06/12 00:40:32;;;;;;;0.00;0.00;;;;;;;;;;5033675;28;20484;-71
2023/06/12 00:42:59;;;;;;;0.10;0.10;;;;;;;;;;5043256;28;20535;-71
2023/06/12 00:45:26;;;;;;;0.00;0.00;;;;;;;;;;5033627;28;20645;-71
2023/06/12 00:47:53;;;;;;;0.10;0.10;;;;;;;;;;5043241;28;20388;-71
2023/06/12 00:50:20;;;;;;;0.10;0.10;;;;;;;;;;5033520;28;20208;-71
2023/06/12 00:52:49;;;;;;;0.10;0.10;;;;;;;;;;5042859;28;20221;-71
2023/06/12 00:55:16;;;;;;;1.05;1.00;;;;;;;;;;5033652;28;20247;-72
2023/06/12 00:57:43;;;;;;;0.03;0.03;;;;;;;;;;5042755;28;20227;-72
2023/06/12 01:00:11;;;;;;;0.08;0.08;;;;;;;;;;5033259;28;20235;-71
2023/06/12 01:02:42;;;;;;;0.00;0.00;;;;;;;;;;5042641;28;20245;-71
2023/06/12 01:05:10;;;;;;;0.10;0.10;;;;;;;;;;5033359;28;20253;-72
2023/06/12 01:07:40;;;;;;;0.00;0.00;;;;;;;;;;5042868;28;20204;-72
2023/06/12 01:10:11;;;;;;;0.10;0.10;;;;;;;;;;5042625;28;20222;-74
2023/06/12 01:12:38;;;;;;;0.10;0.10;;;;;;;;;;5042758;28;20362;-71
2023/06/12 01:15:05;;;;;;;0.00;0.00;;;;;;;;;;5043825;28;20241;-71
2023/06/12 01:17:32;;;;;;;0.00;0.00;;;;;;;;;;5032103;28;20253;-71
2023/06/12 01:20:03;;;;;;;0.00;0.00;;;;;;;;;;5043661;28;20241;-72
2023/06/12 01:22:30;;;;;;;0.10;0.10;;;;;;;;;;5032239;28;20245;-72
2023/06/12 01:25:15;;;;;;;0.10;0.10;;;;;;;;;;5043579;28;20293;-71
2023/06/12 01:27:54;;;;;;;0.10;0.10;;;;;;;;;;5042686;28;20398;-71
2023/06/12 01:30:30;;;;;;;0.10;0.10;;;;;;;;;;5033098;28;20241;-71
2023/06/12 01:32:59;;;;;;;0.10;0.10;;;;;;;;;;5042459;28;20201;-71
2023/06/12 01:35:30;;;;;;;0.00;0.00;;;;;;;;;;5032969;28;20233;-71
2023/06/12 01:38:04;;;;;;;0.10;0.10;;;;;;;;;;5042760;28;20387;-74
2023/06/12 01:40:32;;;;;;;0.10;0.10;;;;;;;;;;5032574;28;20267;-71
2023/06/12 01:42:58;;;;;;;0.10;0.10;;;;;;;;;;5042730;28;20223;-71
2023/06/12 01:45:25;;;;;;;0.10;0.10;;;;;;;;;;5032942;28;20298;-71
2023/06/12 01:47:51;;;;;;;0.30;0.30;;;;;;;;;;5042230;28;20195;-72
2023/06/12 01:50:19;;;;;;;0.08;0.08;;;;;;;;;;5032967;28;20270;-71
2023/06/12 01:52:46;;;;;;;0.00;0.00;;;;;;;;;;5042474;28;20268;-72
2023/06/12 01:55:13;;;;;;;0.00;0.00;;;;;;;;;;5032631;28;20272;-72
2023/06/12 01:57:40;;;;;;;0.05;0.05;;;;;;;;;;5042114;28;20242;-72
2023/06/12 02:00:08;;;;;;;0.00;0.00;;;;;;;;;;5043134;28;20268;-72
2023/06/12 02:02:34;;;;;;;0.05;0.05;;;;;;;;;;5031798;28;20244;-71
2023/06/12 02:05:01;;;;;;;0.08;0.08;;;;;;;;;;5043165;28;20262;-72
2023/06/12 02:07:29;;;;;;;0.00;0.00;;;;;;;;;;5031707;28;20284;-72
2023/06/12 02:09:56;;;;;;;0.03;0.03;;;;;;;;;;5043212;28;20216;-72
2023/06/12 02:12:22;;;;;;;0.03;0.03;;;;;;;;;;5031575;28;20259;-71
2023/06/12 02:14:50;;;;;;;0.10;0.10;;;;;;;;;;5043241;28;20246;-71
2023/06/12 02:17:18;;;;;;;0.10;0.10;;;;;;;;;;5032249;28;20288;-71
2023/06/12 02:19:45;;;;;;;0.03;0.03;;;;;;;;;;5046689;28;20206;-71
2023/06/12 02:22:11;;;;;;;0.50;0.50;;;;;;;;;;5035070;28;20250;-71
2023/06/12 02:24:40;;;;;;;0.00;0.00;;;;;;;;;;5046678;28;20497;-71
2023/06/12 02:27:06;;;;;;;0.00;0.00;;;;;;;;;;5035002;28;20577;-72
2023/06/12 02:29:33;;;;;;;0.00;0.00;;;;;;;;;;5046692;28;20448;-72
2023/06/12 02:31:59;;;;;;;0.20;0.20;;;;;;;;;;5035000;28;20517;-72
2023/06/12 02:34:25;;;;;;;0.05;0.05;;;;;;;;;;5046547;28;20441;-71
2023/06/12 02:36:52;;;;;;;0.10;0.10;;;;;;;;;;5034800;28;20499;-71
2023/06/12 02:39:18;;;;;;;0.10;0.10;;;;;;;;;;5046258;28;20458;-72
2023/06/12 02:41:46;;;;;;;0.00;0.00;;;;;;;;;;5034896;28;20313;-72
2023/06/12 02:44:13;;;;;;;0.10;0.10;;;;;;;;;;5045903;28;20212;-71
2023/06/12 02:46:50;;;;;;;0.00;0.00;;;;;;;;;;5034859;28;20269;-72
2023/06/12 02:49:16;;;;;;;3.75;3.65;;;;;;;;;;5045879;28;20277;-71
2023/06/12 02:51:43;;;;;;;0.73;0.73;;;;;;;;;;5034844;28;20254;-71
2023/06/12 02:54:09;;;;;;;0.10;0.10;;;;;;;;;;5045720;28;20214;-71
2023/06/12 02:56:36;;;;;;;0.10;0.10;;;;;;;;;;5034689;28;20250;-71
2023/06/12 02:59:03;;;;;;;0.10;0.10;;;;;;;;;;5045423;28;20235;-71
2023/06/12 03:01:30;;;;;;;0.00;0.00;;;;;;;;;;5034870;28;20333;-71
2023/06/12 03:03:58;;;;;;;0.00;0.00;;;;;;;;;;5045681;28;20212;-72
2023/06/12 03:06:26;;;;;;;0.10;0.10;;;;;;;;;;5034696;28;20242;-71
2023/06/12 03:08:52;;;;;;;0.08;0.08;;;;;;;;;;5045218;28;20213;-72
2023/06/12 03:11:19;;;;;;;0.05;0.05;;;;;;;;;;5034752;28;20450;-72
2023/06/12 03:13:45;;;;;;;0.05;0.05;;;;;;;;;;5045446;28;20212;-71
2023/06/12 03:16:14;;;;;;;0.00;0.00;;;;;;;;;;5034810;28;20441;-71
2023/06/12 03:18:41;;;;;;;0.10;0.10;;;;;;;;;;5045230;28;20207;-72
2023/06/12 03:21:07;;;;;;;0.10;0.10;;;;;;;;;;5034769;28;20315;-72
2023/06/12 03:23:34;;;;;;;0.10;0.10;;;;;;;;;;5044841;28;20213;-72
2023/06/12 03:26:00;;;;;;;0.52;0.52;;;;;;;;;;5034354;28;20303;-71
2023/06/12 03:28:27;;;;;;;0.10;0.10;;;;;;;;;;5044107;28;20230;-72
2023/06/12 03:30:53;;;;;;;0.10;0.10;;;;;;;;;;5034277;28;20487;-71
2023/06/12 03:33:21;;;;;;;0.08;0.08;;;;;;;;;;5044573;28;20234;-71
2023/06/12 03:35:47;;;;;;;0.10;0.10;;;;;;;;;;5034592;28;20269;-72
2023/06/12 03:38:13;;;;;;;0.22;0.22;;;;;;;;;;5044398;28;20239;-71
2023/06/12 03:40:40;;;;;;;0.10;0.10;;;;;;;;;;5034594;28;20262;-71
2023/06/12 03:43:06;;;;;;;0.32;0.32;;;;;;;;;;5044300;28;20243;-72
2023/06/12 03:45:33;;;;;;;0.10;0.10;;;;;;;;;;5034578;28;20265;-71
2023/06/12 03:47:59;;;;;;;0.10;0.10;;;;;;;;;;5044386;28;20207;-71
2023/06/12 03:50:27;;;;;;;0.52;0.52;;;;;;;;;;5034789;28;20319;-71
2023/06/12 03:52:53;;;;;;;2.05;1.95;;;;;;;;;;5044201;28;20453;-71
2023/06/12 03:55:21;;;;;;;0.10;0.10;;;;;;;;;;5034574;28;20240;-71
2023/06/12 03:57:47;;;;;;;0.00;0.00;;;;;;;;;;5044173;28;20196;-72
2023/06/12 04:00:14;;;;;;;0.10;0.10;;;;;;;;;;5034130;28;20271;-72
2023/06/12 04:02:40;;;;;;;0.03;0.03;;;;;;;;;;5043926;28;20229;-72
2023/06/12 04:05:08;;;;;;;0.10;0.10;;;;;;;;;;5042705;28;20239;-72
2023/06/12 04:07:36;;;;;;;0.00;0.00;;;;;;;;;;5043745;28;20218;-73
2023/06/12 04:10:03;;;;;;;0.10;0.10;;;;;;;;;;5044658;28;20216;-72
2023/06/12 04:12:29;;;;;;;0.00;0.00;;;;;;;;;;5033095;28;20466;-71
2023/06/12 04:14:56;;;;;;;0.10;0.10;;;;;;;;;;5044625;28;20205;-71
2023/06/12 04:17:23;;;;;;;0.10;0.10;;;;;;;;;;5032848;28;20263;-72
2023/06/12 04:19:49;;;;;;;0.03;0.03;;;;;;;;;;5044614;28;20205;-71
2023/06/12 04:22:16;;;;;;;0.10;0.10;;;;;;;;;;5032954;28;20425;-71
2023/06/12 04:24:45;;;;;;;0.10;0.10;;;;;;;;;;5044315;28;20277;-71
2023/06/12 04:27:11;;;;;;;0.05;0.05;;;;;;;;;;5032689;28;20303;-71
2023/06/12 04:29:38;;;;;;;0.10;0.10;;;;;;;;;;5044472;28;20206;-71
2023/06/12 04:32:06;;;;;;;0.00;0.00;;;;;;;;;;5032833;28;20241;-71
2023/06/12 04:34:33;;;;;;;0.00;0.00;;;;;;;;;;5044064;28;20277;-71
2023/06/12 04:36:59;;;;;;;2.15;2.05;;;;;;;;;;5032910;28;20285;-71
2023/06/12 04:39:29;;;;;;;0.10;0.10;;;;;;;;;;5044115;28;20205;-71
2023/06/12 04:41:57;;;;;;;0.10;0.10;;;;;;;;;;5032406;28;20241;-71
2023/06/12 04:44:31;;;;;;;0.00;0.00;;;;;;;;;;5044034;28;20281;-71
2023/06/12 04:47:02;;;;;;;0.40;0.40;;;;;;;;;;5032422;28;20310;-71
2023/06/12 04:49:29;;;;;;;0.10;0.10;;;;;;;;;;5044118;28;20420;-70
2023/06/12 04:51:56;;;;;;;0.10;0.10;;;;;;;;;;5032506;28;20243;-72
2023/06/12 04:54:23;;;;;;;0.00;0.00;;;;;;;;;;5043742;28;20242;-71
2023/06/12 04:56:50;;;;;;;0.10;0.10;;;;;;;;;;5032336;28;20245;-71
2023/06/12 04:59:18;;;;;;;0.10;0.10;;;;;;;;;;5043675;28;20562;-71
2023/06/12 05:01:45;;;;;;;0.10;0.10;;;;;;;;;;5032585;28;20263;-71
2023/06/12 05:04:12;;;;;;;1.95;1.85;;;;;;;;;;5043406;28;20203;-70
2023/06/12 05:06:40;;;;;;;1.20;1.08;;;;;;;;;;5032352;28;20567;-70
2023/06/12 05:09:07;;;;;;;0.10;0.10;;;;;;;;;;5043572;28;20221;-70
2023/06/12 05:11:33;;;;;;;0.05;0.05;;;;;;;;;;5032293;28;20260;-71
2023/06/12 05:14:00;;;;;;;0.10;0.10;;;;;;;;;;5043464;28;20213;-71
2023/06/12 05:16:28;;;;;;;0.10;0.10;;;;;;;;;;5032526;28;20239;-70
2023/06/12 05:18:54;;;;;;;0.00;0.00;;;;;;;;;;5043450;28;20240;-71
2023/06/12 05:21:21;;;;;;;0.00;0.00;;;;;;;;;;5032316;28;20349;-71
2023/06/12 05:23:48;;;;;;;0.00;0.00;;;;;;;;;;5043252;28;20243;-71
2023/06/12 05:26:14;;;;;;;0.00;0.00;;;;;;;;;;5032500;28;20239;-71
2023/06/12 05:28:40;;;;;;;0.08;0.08;;;;;;;;;;5043121;28;20430;-71
2023/06/12 05:31:08;;;;;;;0.10;0.10;;;;;;;;;;5032676;28;20250;-71
2023/06/12 05:33:36;;;;;;;0.00;0.00;;;;;;;;;;5042765;28;20442;-71
2023/06/12 05:36:02;;;;;;;0.10;0.10;;;;;;;;;;5032638;28;20354;-71
2023/06/12 05:38:29;;;;;;;0.10;0.10;;;;;;;;;;5042689;28;20208;-70
2023/06/12 05:40:55;;;;;;;0.00;0.00;;;;;;;;;;5032664;28;20245;-71
2023/06/12 05:43:21;;;;;;;0.10;0.10;;;;;;;;;;5042830;28;20420;-70
2023/06/12 05:45:48;;;;;;;0.10;0.10;;;;;;;;;;5032736;28;20241;-70
2023/06/12 05:48:14;;;;;;;0.00;0.00;;;;;;;;;;5042488;28;20227;-71
2023/06/12 05:50:42;;;;;;;0.05;0.05;;;;;;;;;;5032661;28;20251;-70
2023/06/12 05:53:08;;;;;;;0.10;0.10;;;;;;;;;;5044661;28;20224;-71
2023/06/12 05:55:35;;;;;;;0.10;0.10;;;;;;;;;;5036633;28;20306;-70
2023/06/12 05:58:01;;;;;;;0.00;0.00;;;;;;;;;;5046480;28;20361;-71
2023/06/12 06:00:27;;;;;;;0.10;0.10;;;;;;;;;;5036561;28;20306;-71
2023/06/12 06:02:54;;;;;;;0.10;0.10;;;;;;;;;;5045913;28;20210;-71
2023/06/12 06:05:20;;;;;;;0.08;0.08;;;;;;;;;;5036495;28;20419;-72
2023/06/12 06:07:50;;;;;;;0.10;0.10;;;;;;;;;;5046135;28;20368;-71
2023/06/12 06:10:16;;;;;;;0.00;0.00;;;;;;;;;;5036321;28;20211;-71
2023/06/12 06:12:43;;;;;;;0.08;0.08;;;;;;;;;;5045792;28;20194;-71
2023/06/12 06:15:10;;;;;;;0.05;0.05;;;;;;;;;;5036490;28;20279;-73
2023/06/12 06:17:36;;;;;;;0.00;0.00;;;;;;;;;;5045910;28;20399;-75
2023/06/12 06:20:05;;;;;;;0.10;0.10;;;;;;;;;;5046614;28;20260;-77
2023/06/12 06:22:32;;;;;;;0.00;0.00;;;;;;;;;;5035497;28;20247;-77
2023/06/12 06:25:00;;;;;;;0.10;0.10;;;;;;;;;;5047189;28;20209;-77
2023/06/12 06:27:26;;;;;;;0.10;0.10;;;;;;;;;;5035312;28;20242;-76
2023/06/12 06:29:53;;;;;;;0.10;0.10;;;;;;;;;;5046989;28;20320;-77
2023/06/12 06:32:19;;;;;;;0.10;0.10;;;;;;;;;;5035425;28;20302;-77
2023/06/12 06:34:45;;;;;;;0.10;0.10;;;;;;;;;;5046819;28;20279;-78
2023/06/12 06:37:12;;;;;;;0.00;0.00;;;;;;;;;;5034992;28;20242;-76
2023/06/12 06:39:38;;;;;;;0.00;0.00;;;;;;;;;;5046632;28;20495;-75
2023/06/12 06:42:06;;;;;;;0.00;0.00;;;;;;;;;;5034962;28;20336;-74
2023/06/12 06:44:34;;;;;;;0.05;0.05;;;;;;;;;;5046469;28;20278;-76
2023/06/12 06:47:00;;;;;;;0.05;0.05;;;;;;;;;;5034743;28;20235;-75
2023/06/12 06:49:27;;;;;;;0.10;0.10;;;;;;;;;;5046201;28;20278;-75
2023/06/12 06:51:53;;;;;;;0.00;0.00;;;;;;;;;;5034808;28;20324;-76
2023/06/12 06:54:19;;;;;;;0.10;0.10;;;;;;;;;;5045927;28;20240;-76
2023/06/12 06:56:47;;;;;;;0.10;0.10;;;;;;;;;;5034674;28;20321;-76
2023/06/12 06:59:15;;;;;;;0.00;0.00;;;;;;;;;;5045577;28;20235;-75
2023/06/12 07:01:41;;;;;;;0.00;0.00;;;;;;;;;;5034656;28;20530;-75
2023/06/12 07:04:08;;;;;;;0.10;0.10;;;;;;;;;;5045411;28;20206;-76
2023/06/12 07:06:34;;;;;;;0.00;0.00;;;;;;;;;;5034575;28;20239;-76
2023/06/12 07:09:01;;;;;;;0.00;0.00;;;;;;;;;;5045602;28;20456;-76
2023/06/12 07:11:27;;;;;;;0.10;0.10;;;;;;;;;;5034727;28;20490;-76
2023/06/12 07:13:54;;;;;;;0.00;0.00;;;;;;;;;;5045227;28;20283;-76
2023/06/12 07:16:22;;;;;;;0.00;0.00;;;;;;;;;;5034771;28;20313;-75
2023/06/12 07:18:49;;;;;;;0.10;0.10;;;;;;;;;;5045354;28;20232;-76
2023/06/12 07:21:15;;;;;;;0.10;0.10;;;;;;;;;;5034365;28;20295;-75
2023/06/12 07:23:41;;;;;;;0.05;0.05;;;;;;;;;;5045285;28;20208;-76
2023/06/12 07:26:08;;;;;;;0.00;0.00;;;;;;;;;;5034418;28;20255;-76
2023/06/12 07:28:34;;;;;;;0.00;0.00;;;;;;;;;;5045118;28;20227;-75
2023/06/12 07:31:01;;;;;;;0.00;0.00;;;;;;;;;;5034605;28;20306;-75
2023/06/12 07:33:29;;;;;;;0.00;0.00;;;;;;;;;;5045071;28;20215;-75
2023/06/12 07:35:55;;;;;;;0.00;0.00;;;;;;;;;;5034827;28;20270;-78
2023/06/12 07:38:21;;;;;;;0.00;0.00;;;;;;;;;;5044884;28;20203;-77
2023/06/12 07:40:48;;;;;;;0.00;0.00;;;;;;;;;;5034382;28;20323;-77
2023/06/12 07:43:15;;;;;;;0.00;0.00;;;;;;;;;;5044695;28;20435;-78
2023/06/12 07:45:42;;;;;;;0.00;0.00;;;;;;;;;;5034549;28;20276;-77
2023/06/12 07:48:08;;;;;;;0.00;0.00;;;;;;;;;;5044237;28;20286;-76
2023/06/12 07:50:38;;;;;;;0.00;0.00;;;;;;;;;;5034242;28;20613;-75
2023/06/12 07:53:05;;;;;;;0.10;0.10;;;;;;;;;;5044124;28;20197;-75
2023/06/12 07:55:32;;;;;;;0.00;0.00;;;;;;;;;;5034563;28;20256;-76
2023/06/12 07:57:58;;;;;;;0.10;0.10;;;;;;;;;;5044043;28;20239;-77
2023/06/12 08:00:26;;;;;;;0.00;0.00;;;;;;;;;;5034411;28;20476;-77
2023/06/12 08:02:58;;;;;;;0.00;0.00;;;;;;;;;;5044100;28;20365;-76
2023/06/12 08:05:24;;;;;;;0.00;0.00;;;;;;;;;;5034280;28;20215;-78
2023/06/12 08:07:52;;;;;;;0.00;0.00;;;;;;;;;;5043739;28;20223;-78
2023/06/12 08:10:18;;;;;;;0.00;0.00;;;;;;;;;;5034433;28;20428;-77
2023/06/12 08:12:45;;;;;;;0.00;0.00;;;;;;;;;;5043554;28;20268;-77
2023/06/12 08:15:11;;;;;;;0.00;0.00;;;;;;;;;;5033700;28;20243;-77
2023/06/12 08:17:41;;;;;;;0.00;0.00;;;;;;;;;;5043400;28;20200;-77
2023/06/12 08:20:09;;;;;;;0.00;0.00;;;;;;;;;;5041877;28;20209;-76
2023/06/12 08:22:36;;;;;;;0.08;0.08;;;;;;;;;;5044935;28;20216;-78
2023/06/12 08:25:04;;;;;;;0.00;0.00;;;;;;;;;;5045496;28;20205;-79
2023/06/12 08:27:30;;;;;;;0.00;0.00;;;;;;;;;;5032900;28;20490;-79
2023/06/12 08:29:59;;;;;;;0.10;0.10;;;;;;;;;;5044315;28;20458;-79
2023/06/12 08:32:26;;;;;;;0.10;0.10;;;;;;;;;;5032953;28;20253;-76
2023/06/12 08:34:53;;;;;;;0.20;0.20;;;;;;;;;;5044349;28;20243;-80
2023/06/12 08:37:19;;;;;;;0.10;0.10;;;;;;;;;;5032793;28;20239;-77
2023/06/12 08:39:47;;;;;;;0.00;0.00;;;;;;;;;;5044486;28;20276;-77
2023/06/12 08:42:15;;;;;;;0.08;0.08;;;;;;;;;;5032727;28;20263;-76
2023/06/12 08:44:44;;;;;;;0.38;0.30;;;;;;;;;;5044409;28;20542;-78
2023/06/12 08:47:11;;;;;;;0.00;0.00;;;;;;;;;;5032625;28;20260;-78
2023/06/12 08:49:38;;;;;;;0.08;0.08;;;;;;;;;;5044201;28;20385;-80
2023/06/12 08:52:07;;;;;;;0.08;0.08;;;;;;;;;;5032752;28;20260;-78
2023/06/12 08:54:34;;;;;;;0.05;0.05;;;;;;;;;;5044012;28;20243;-80
2023/06/12 08:57:03;;;;;;;0.00;0.00;;;;;;;;;;5032596;28;20241;-80
2023/06/12 08:59:30;;;;;;;0.20;0.20;;;;;;;;;;5043688;28;20275;-80
2023/06/12 09:01:57;;;;;;;0.10;0.10;;;;;;;;;;5032994;28;20295;-80
2023/06/12 09:04:28;;;;;;;0.30;0.30;;;;;;;;;;5044078;28;20373;-78
2023/06/12 09:07:01;;;;;;;0.00;0.00;;;;;;;;;;5032888;28;20263;-79
2023/06/12 09:09:35;;;;;;;0.00;0.00;;;;;;;;;;5044127;28;20408;-77
2023/06/12 09:12:02;;;;;;;0.10;0.10;;;;;;;;;;5032346;28;20487;-76
2023/06/12 09:14:28;;;;;;;0.00;0.00;;;;;;;;;;5043599;28;20394;-78
2023/06/12 09:16:56;;;;;;;0.00;0.00;;;;;;;;;;5032178;28;20241;-77
2023/06/12 09:19:22;;;;;;;0.00;0.00;;;;;;;;;;5043596;28;20387;-78
2023/06/12 09:21:58;;;;;;;0.00;0.00;;;;;;;;;;5032852;28;20251;-79
2023/06/12 09:24:27;;;;;;;0.10;0.10;;;;;;;;;;5044430;28;20282;-78
2023/06/12 09:26:55;;;;;;;0.05;0.05;;;;;;;;;;5032267;28;20435;-77
2023/06/12 09:29:26;;;;;;;0.10;0.10;;;;;;;;;;5047552;28;20271;-77
2023/06/12 09:31:52;;;;;;;0.00;0.00;;;;;;;;;;5036277;28;20248;-77
2023/06/12 09:34:20;;;;;;;0.00;0.00;;;;;;;;;;5047704;28;20204;-77
2023/06/12 09:36:48;;;;;;;0.10;0.10;;;;;;;;;;5036191;28;20236;-77
2023/06/12 09:39:15;;;;;;;0.10;0.10;;;;;;;;;;5047530;28;20229;-78
2023/06/12 09:41:48;;;;;;;0.38;0.35;;;;;;;;;;5036176;28;20240;-77
2023/06/12 09:44:19;;;;;;;0.00;0.00;;;;;;;;;;5047486;28;20544;-77
2023/06/12 09:46:46;;;;;;;0.00;0.00;;;;;;;;;;5036095;28;20525;-77
2023/06/12 09:49:14;;;;;;;0.00;0.00;;;;;;;;;;5047279;28;20252;-77
2023/06/12 09:51:43;;;;;;;0.00;0.00;;;;;;;;;;5036007;28;20491;-77
2023/06/12 09:54:12;;;;;;;0.00;0.00;;;;;;;;;;5046947;28;20539;-76
2023/06/12 09:56:39;;;;;;;0.00;0.00;;;;;;;;;;5035992;28;20560;-77
2023/06/12 09:59:08;;;;;;;0.20;0.20;;;;;;;;;;5046510;28;20228;-76
2023/06/12 10:01:37;;;;;;;0.00;0.00;;;;;;;;;;5035921;28;20240;-77
2023/06/12 10:04:04;;;;;;;0.00;0.00;;;;;;;;;;5046973;28;20204;-77
2023/06/12 10:06:32;;;;;;;0.00;0.00;;;;;;;;;;5035804;28;20248;-76
2023/06/12 10:08:59;;;;;;;0.10;0.10;;;;;;;;;;5046619;28;20252;-77
2023/06/12 10:11:26;;;;;;;0.10;0.10;;;;;;;;;;5035750;28;20260;-77
2023/06/12 10:13:53;;;;;;;0.10;0.10;;;;;;;;;;5046551;28;20204;-76
2023/06/12 10:16:19;;;;;;;0.43;0.43;;;;;;;;;;5035614;28;20484;-76
2023/06/12 10:18:46;;;;;;;0.00;0.00;;;;;;;;;;5046550;28;20239;-76
2023/06/12 10:21:12;;;;;;;0.10;0.10;;;;;;;;;;5035829;28;20444;-77
2023/06/12 10:23:39;;;;;;;0.10;0.10;;;;;;;;;;5045977;28;20272;-76
2023/06/12 10:26:07;;;;;;;0.08;0.08;;;;;;;;;;5035842;28;20265;-76
2023/06/12 10:28:34;;;;;;;0.30;0.30;;;;;;;;;;5045844;28;20292;-76
2023/06/12 10:31:13;;;;;;;0.00;0.00;;;;;;;;;;5036045;28;20241;-76
2023/06/12 10:33:56;;;;;;;0.00;0.00;;;;;;;;;;5046211;28;20432;-76
2023/06/12 10:36:22;;;;;;;0.00;0.00;;;;;;;;;;5035304;28;20240;-76
2023/06/12 10:38:48;;;;;;;0.10;0.10;;;;;;;;;;5045537;28;20228;-76
2023/06/12 10:44:24;;;;;;;0.20;0.20;;;;;;;;;;5101538;28;20562;-75
2023/06/12 10:46:52;;;;;;;0.10;0.10;;;;;;;;;;5089721;28;20238;-75
2023/06/12 10:49:18;;;;;;;0.17;0.17;;;;;;;;;;5065220;28;20280;-75
2023/06/12 10:51:49;;;;;;;0.00;0.00;;;;;;;;;;5076708;28;20309;-75
2023/06/12 10:54:15;;;;;;;0.20;0.20;;;;;;;;;;5065683;28;20242;-75
2023/06/12 10:56:55;;;;;;;0.10;0.10;;;;;;;;;;5075633;28;20245;-75
2023/06/12 10:59:29;;;;;;;0.17;0.17;;;;;;;;;;5063937;28;20274;-75
2023/06/12 11:01:57;;;;;;;0.00;0.00;;;;;;;;;;5064498;28;20298;-76
2023/06/12 11:04:23;;;;;;;0.00;0.00;;;;;;;;;;5062399;28;20211;-76
2023/06/12 11:06:49;;;;;;;0.00;0.00;;;;;;;;;;5063487;28;20592;-75
2023/06/12 11:09:16;;;;;;;0.00;0.00;;;;;;;;;;5063158;28;20504;-76
2023/06/12 11:11:42;;;;;;;0.00;0.00;;;;;;;;;;5062589;28;20251;-75
2023/06/12 11:14:09;;;;;;;1.35;0.73;;;;;;;;;;5063637;28;20200;-75
2023/06/12 11:16:40;;;;;;;0.00;0.00;;;;;;;;;;5061666;28;20239;-76
2023/06/12 11:19:08;;;;;;;0.10;0.10;;;;;;;;;;5064246;28;20260;-75
2023/06/12 11:21:37;;;;;;;0.15;0.15;;;;;;;;;;5061578;28;20578;-76
2023/06/12 11:24:05;;;;;;;0.00;0.00;;;;;;;;;;5064487;28;20300;-76
2023/06/12 11:26:32;;;;;;;0.00;0.00;;;;;;;;;;5061048;28;20266;-75
2023/06/12 11:29:12;;;;;;;0.00;0.00;;;;;;;;;;5064584;28;20209;-75
2023/06/12 11:31:38;;;;;;;0.00;0.00;;;;;;;;;;5061599;28;20239;-73
2023/06/12 11:34:05;;;;;;;0.00;0.00;;;;;;;;;;5063989;28;20204;-73
2023/06/12 11:36:32;;;;;;;0.00;0.00;;;;;;;;;;5060859;28;20298;-76
2023/06/12 11:38:59;;;;;;;0.00;0.00;;;;;;;;;;5064733;28;20353;-76
2023/06/12 11:41:26;;;;;;;0.00;0.00;;;;;;;;;;5060147;28;20240;-74
2023/06/12 11:43:52;;;;;;;0.00;0.00;;;;;;;;;;5064801;28;20483;-74
2023/06/12 11:46:19;;;;;;;0.50;0.50;;;;;;;;;;5059114;28;20462;-74
2023/06/12 11:48:45;;;;;;;0.00;0.00;;;;;;;;;;5066144;28;20242;-76
2023/06/12 11:51:12;;;;;;;0.00;0.00;;;;;;;;;;5058116;28;20239;-73
2023/06/12 11:53:40;;;;;;;0.00;0.00;;;;;;;;;;5063734;28;20276;-73
2023/06/12 11:56:07;;;;;;;0.00;0.00;;;;;;;;;;5043946;28;20262;-73
2023/06/12 11:58:33;;;;;;;0.10;0.10;;;;;;;;;;5054188;28;20271;-75
2023/06/12 12:01:09;;;;;;;0.00;0.00;;;;;;;;;;5042945;28;20487;-76
2023/06/12 12:03:37;;;;;;;0.00;0.00;;;;;;;;;;5053903;28;20239;-76
2023/06/12 12:06:03;;;;;;;0.40;0.40;;;;;;;;;;5043590;28;20247;-76
2023/06/12 12:08:31;;;;;;;0.00;0.00;;;;;;;;;;5054499;28;20232;-76
2023/06/12 12:10:59;;;;;;;0.10;0.10;;;;;;;;;;5042680;28;20254;-75
2023/06/12 12:13:25;;;;;;;0.00;0.00;;;;;;;;;;5055088;28;20263;-74
2023/06/12 12:15:51;;;;;;;0.00;0.00;;;;;;;;;;5041942;28;20239;-76
2023/06/12 12:18:18;;;;;;;0.00;0.00;;;;;;;;;;5055616;28;20243;-75
2023/06/12 12:20:48;;;;;;;0.45;0.25;;;;;;;;;;5041017;28;20334;-76
2023/06/12 12:23:14;;;;;;;0.00;0.00;;;;;;;;;;5056133;28;20229;-76
2023/06/12 12:25:41;;;;;;;0.00;0.00;;;;;;;;;;5040162;28;20240;-76
2023/06/12 12:28:09;;;;;;;0.00;0.00;;;;;;;;;;5057093;28;20276;-75
2023/06/12 12:30:36;;;;;;;0.70;0.70;;;;;;;;;;5039528;28;20467;-76
2023/06/12 12:33:02;;;;;;;0.00;0.00;;;;;;;;;;5057336;28;20201;-76
2023/06/12 12:35:29;;;;;;;0.00;0.00;;;;;;;;;;5038499;28;20248;-76
2023/06/12 12:37:56;;;;;;;0.00;0.00;;;;;;;;;;5058284;28;20236;-76
2023/06/12 12:40:23;;;;;;;0.00;0.00;;;;;;;;;;5037640;28;20236;-75
2023/06/12 12:42:51;;;;;;;0.00;0.00;;;;;;;;;;5058776;28;20232;-75
2023/06/12 12:45:19;;;;;;;0.00;0.00;;;;;;;;;;5037006;28;20272;-75
2023/06/12 12:47:47;;;;;;;0.00;0.00;;;;;;;;;;5059438;28;20276;-76
2023/06/12 12:50:14;;;;;;;0.00;0.00;;;;;;;;;;5036313;28;20204;-75
2023/06/12 12:52:40;;;;;;;0.00;0.00;;;;;;;;;;5059919;28;20482;-75
2023/06/12 12:55:08;;;;;;;0.00;0.00;;;;;;;;;;5045190;28;20208;-75
2023/06/12 12:57:37;;;;;;;0.35;0.20;;;;;;;;;;5034004;28;20536;-75
2023/06/12 13:00:07;;;;;;;0.00;0.00;;;;;;;;;;5045431;28;20252;-75
2023/06/12 13:02:35;;;;;;;0.40;0.20;;;;;;;;;;5033925;28;20208;-74
2023/06/12 13:05:02;;;;;;;0.00;0.00;;;;;;;;;;5045057;28;20205;-73
2023/06/12 13:07:30;;;;;;;0.00;0.00;;;;;;;;;;5049985;28;20248;-75
2023/06/12 13:09:58;;;;;;;0.00;0.00;;;;;;;;;;5044988;28;20212;-75
2023/06/12 13:12:24;;;;;;;0.00;0.00;;;;;;;;;;5050574;28;20476;-74
2023/06/12 13:14:51;;;;;;;0.00;0.00;;;;;;;;;;5044896;28;20563;-75
2023/06/12 13:17:17;;;;;;;0.00;0.00;;;;;;;;;;5050356;28;20308;-74
2023/06/12 13:19:45;;;;;;;1.35;1.05;;;;;;;;;;5044731;28;20276;-75
2023/06/12 13:22:11;;;;;;;0.00;0.00;;;;;;;;;;5050215;28;20240;-76
2023/06/12 13:24:38;;;;;;;0.17;0.17;;;;;;;;;;5044587;28;20263;-75
2023/06/12 13:27:04;;;;;;;0.00;0.00;;;;;;;;;;5049800;28;20240;-75
2023/06/12 13:29:31;;;;;;;0.00;0.00;;;;;;;;;;5045190;28;20445;-75
2023/06/12 13:31:58;;;;;;;0.00;0.00;;;;;;;;;;5048771;28;20271;-74
2023/06/12 13:34:24;;;;;;;0.30;0.30;;;;;;;;;;5046061;28;20201;-75
2023/06/12 13:36:52;;;;;;;0.10;0.10;;;;;;;;;;5047907;28;20247;-75
2023/06/12 13:39:19;;;;;;;0.00;0.00;;;;;;;;;;5046757;28;20254;-75
2023/06/12 13:41:45;;;;;;;0.10;0.10;;;;;;;;;;5046793;28;20307;-75
2023/06/12 13:44:11;;;;;;;0.00;0.00;;;;;;;;;;5047090;28;20266;-75
2023/06/12 13:46:38;;;;;;;0.00;0.00;;;;;;;;;;5045777;28;20497;-75
2023/06/12 13:49:05;;;;;;;1.08;1.08;;;;;;;;;;5048326;28;20548;-75
2023/06/12 13:51:35;;;;;;;0.00;0.00;;;;;;;;;;5045501;28;20503;-76
2023/06/12 13:54:02;;;;;;;0.00;0.00;;;;;;;;;;5049185;28;20371;-76
2023/06/12 13:56:30;;;;;;;0.00;0.00;;;;;;;;;;5045377;28;20252;-77
2023/06/12 13:58:56;;;;;;;0.00;0.00;;;;;;;;;;5049700;28;20271;-77
2023/06/12 14:01:23;;;;;;;0.00;0.00;;;;;;;;;;5043929;28;20239;-77
2023/06/12 14:03:50;;;;;;;0.00;0.00;;;;;;;;;;5050313;28;20293;-78
2023/06/12 14:06:17;;;;;;;0.00;0.00;;;;;;;;;;5043274;28;20298;-77
2023/06/12 14:08:43;;;;;;;0.00;0.00;;;;;;;;;;5050840;28;20204;-77
2023/06/12 14:11:11;;;;;;;0.25;0.25;;;;;;;;;;5041983;28;20307;-76
2023/06/12 14:13:38;;;;;;;0.03;0.03;;;;;;;;;;5051885;28;20212;-77
2023/06/12 14:16:05;;;;;;;0.00;0.00;;;;;;;;;;5041394;28;20240;-75
2023/06/12 14:18:31;;;;;;;0.00;0.00;;;;;;;;;;5051855;28;20372;-76
2023/06/12 14:21:01;;;;;;;0.00;0.00;;;;;;;;;;5040266;28;20330;-76
2023/06/12 14:23:27;;;;;;;0.03;0.03;;;;;;;;;;5052365;28;20251;-74
2023/06/12 14:25:53;;;;;;;0.05;0.05;;;;;;;;;;5039718;28;20610;-75
2023/06/12 14:28:21;;;;;;;0.00;0.00;;;;;;;;;;5053681;28;20441;-76
2023/06/12 14:30:47;;;;;;;0.00;0.00;;;;;;;;;;5038814;28;20252;-75
2023/06/12 14:33:14;;;;;;;29.35;14.45;;;;;;;;;;5054050;28;20267;-75
2023/06/12 14:35:40;;;;;;;0.00;0.00;;;;;;;;;;5038087;28;20240;-75
2023/06/12 14:38:07;;;;;;;0.00;0.00;;;;;;;;;;5055109;28;20243;-76
2023/06/12 14:40:33;;;;;;;0.00;0.00;;;;;;;;;;5036937;28;20259;-74
2023/06/12 14:42:59;;;;;;;0.00;0.00;;;;;;;;;;5055323;28;20216;-77
2023/06/12 14:45:27;;;;;;;0.00;0.00;;;;;;;;;;5034545;28;20212;-76
2023/06/12 14:47:53;;;;;;;0.20;0.20;;;;;;;;;;5056989;28;20215;-78